Terminal Aerodrome Forecast
Issued by NWS

Home | Current Version | Previous Version | Text Only | Print | Product List | Glossary On
Versions: 1 2 3 4 5 6 7 8 9 10 11 12 13 14 15
074
FTUS42 KGSP 071126
TAFGMU
TAF
KGMU 071126Z 0712/0812 36007KT P6SM BKN250
     FM071600 36011G19KT P6SM SCT250
     FM072300 30007KT P6SM SKC
     FM080700 24005KT P6SM SCT250=

USA.gov is the U.S. government's official web portal to all federal, state and local government web resources and services.